BCS3CA EGNX-LEVT
Flight info
| Callsign | BCS3CA |
|---|---|
| Flight time | 1h 55m |
| Altitude | 30000 |
| Route | SAPCO UY53 DTY UM605 SILVA Q41 SAM/N0429F310 M195 MARUK/N0415F290 N621 LELNA/N0428F310 DCT DOMOK UT260 UPALO UN862 TERPO UN872 ERIGA UZ218 FUJTI DCT PEXOD DCT NENEM N867 BLV M601 CEGAM |
| Aircraft | B738/M-DFGIJ1LORVWY/LB1 |
Departure
| Time | 2026-05-03 20:51 |
|---|---|
| Airport | East Midlands Airport (EGNX) |
Arrival
| Time | 2026-05-03 22:47 |
|---|---|
| Airport | Vitoria Airport (LEVT) |
| Time | Latitude | Longitude | Altitude | Speed | Heading |
|---|---|---|---|---|---|
| 2026-05-03 20:16 | 52.82591 | -1.34572 | 299 ft | 0 kts | 268° |
| 2026-05-03 20:39 | 52.82595 | -1.34544 | 299 ft | 4 kts | 233° |
| 2026-05-03 20:39 | 52.82607 | -1.34516 | 299 ft | 4 kts | 245° |
| 2026-05-03 20:39 | 52.82610 | -1.34486 | 299 ft | 4 kts | 326° |
| 2026-05-03 20:39 | 52.82588 | -1.34479 | 299 ft | 4 kts | 358° |
| 2026-05-03 20:40 | 52.82574 | -1.34478 | 300 ft | 1 kts | 358° |
| 2026-05-03 20:46 | 52.82575 | -1.34478 | 302 ft | 0 kts | 358° |
| 2026-05-03 20:46 | 52.82586 | -1.34479 | 302 ft | 4 kts | 358° |
| 2026-05-03 20:46 | 52.82617 | -1.34480 | 303 ft | 6 kts | 358° |
| 2026-05-03 20:47 | 52.82664 | -1.34483 | 299 ft | 8 kts | 358° |
| 2026-05-03 20:47 | 52.82723 | -1.34485 | 301 ft | 9 kts | 358° |
| 2026-05-03 20:47 | 52.82792 | -1.34489 | 299 ft | 10 kts | 358° |
| 2026-05-03 20:47 | 52.82849 | -1.34433 | 302 ft | 9 kts | 37° |
| 2026-05-03 20:48 | 52.82894 | -1.34437 | 304 ft | 7 kts | 315° |
| 2026-05-03 20:48 | 52.82906 | -1.34531 | 302 ft | 10 kts | 267° |
| 2026-05-03 20:48 | 52.82903 | -1.34659 | 302 ft | 12 kts | 268° |
| 2026-05-03 20:48 | 52.82901 | -1.34761 | 304 ft | 7 kts | 268° |
| 2026-05-03 20:49 | 52.82899 | -1.34842 | 305 ft | 7 kts | 268° |
| 2026-05-03 20:49 | 52.82915 | -1.34923 | 305 ft | 8 kts | 319° |
| 2026-05-03 20:49 | 52.82978 | -1.34937 | 304 ft | 10 kts | 359° |
| 2026-05-03 20:49 | 52.83039 | -1.34928 | 305 ft | 8 kts | 24° |
| 2026-05-03 20:50 | 52.83060 | -1.34888 | 303 ft | 5 kts | 68° |
| 2026-05-03 20:50 | 52.83064 | -1.34827 | 304 ft | 0 kts | 88° |
| 2026-05-03 20:50 | 52.83064 | -1.34810 | 302 ft | 6 kts | 88° |
| 2026-05-03 20:51 | 52.83072 | -1.34432 | 301 ft | 68 kts | 88° |
| 2026-05-03 20:51 | 52.83092 | -1.33306 | 309 ft | 129 kts | 88° |
| 2026-05-03 20:51 | 52.83122 | -1.31567 | 454 ft | 164 kts | 87° |
| 2026-05-03 20:51 | 52.83117 | -1.29694 | 1142 ft | 166 kts | 93° |
| 2026-05-03 20:52 | 52.82984 | -1.27751 | 1765 ft | 173 kts | 95° |
| 2026-05-03 20:52 | 52.82843 | -1.25764 | 2468 ft | 174 kts | 94° |
| 2026-05-03 20:52 | 52.82589 | -1.23702 | 2891 ft | 199 kts | 110° |
| 2026-05-03 20:52 | 52.81822 | -1.21669 | 3212 ft | 218 kts | 131° |
| 2026-05-03 20:53 | 52.80708 | -1.19759 | 3400 ft | 242 kts | 133° |
| 2026-05-03 20:53 | 52.79477 | -1.17678 | 3681 ft | 262 kts | 134° |
| 2026-05-03 20:53 | 52.78156 | -1.15523 | 4338 ft | 269 kts | 142° |
| 2026-05-03 20:53 | 52.76429 | -1.14400 | 5118 ft | 271 kts | 179° |
| 2026-05-03 20:54 | 52.74631 | -1.15131 | 5917 ft | 270 kts | 213° |
| 2026-05-03 20:54 | 52.71891 | -1.19352 | 7452 ft | 273 kts | 223° |
| 2026-05-03 20:54 | 52.70443 | -1.21414 | 8192 ft | 276 kts | 220° |
| 2026-05-03 20:55 | 52.68952 | -1.23429 | 8784 ft | 277 kts | 219° |
| 2026-05-03 20:55 | 52.67439 | -1.25433 | 9487 ft | 281 kts | 219° |
| 2026-05-03 20:55 | 52.65930 | -1.27405 | 10234 ft | 282 kts | 219° |
| 2026-05-03 20:55 | 52.64336 | -1.29477 | 10482 ft | 303 kts | 218° |
| 2026-05-03 20:56 | 52.62622 | -1.31699 | 10653 ft | 325 kts | 218° |
| 2026-05-03 20:56 | 52.60813 | -1.34043 | 11082 ft | 336 kts | 218° |
| 2026-05-03 20:56 | 52.58816 | -1.36086 | 11711 ft | 341 kts | 200° |
| 2026-05-03 20:56 | 52.56476 | -1.36671 | 12463 ft | 344 kts | 179° |
| 2026-05-03 20:57 | 52.54123 | -1.35919 | 13196 ft | 349 kts | 162° |
| 2026-05-03 20:57 | 52.51857 | -1.34436 | 13899 ft | 352 kts | 159° |
| 2026-05-03 20:57 | 52.49586 | -1.32856 | 14588 ft | 356 kts | 159° |
| 2026-05-03 20:57 | 52.47295 | -1.31247 | 15287 ft | 359 kts | 159° |
| 2026-05-03 20:58 | 52.44988 | -1.29638 | 16000 ft | 361 kts | 159° |
| 2026-05-03 20:58 | 52.42659 | -1.28031 | 16676 ft | 364 kts | 159° |
| 2026-05-03 20:58 | 52.40305 | -1.26423 | 17312 ft | 368 kts | 159° |
| 2026-05-03 20:58 | 52.37965 | -1.24834 | 17966 ft | 370 kts | 159° |
| 2026-05-03 20:59 | 52.35586 | -1.23225 | 18605 ft | 372 kts | 160° |
| 2026-05-03 20:59 | 52.33176 | -1.21598 | 19188 ft | 376 kts | 160° |
| 2026-05-03 20:59 | 52.30749 | -1.19962 | 19767 ft | 379 kts | 160° |
| 2026-05-03 20:59 | 52.28304 | -1.18316 | 20346 ft | 381 kts | 160° |
| 2026-05-03 21:00 | 52.25840 | -1.16659 | 20897 ft | 384 kts | 160° |
| 2026-05-03 21:00 | 52.25005 | -1.16099 | 21071 ft | 385 kts | 160° |
| 2026-05-03 21:00 | 52.20864 | -1.13320 | 21950 ft | 390 kts | 160° |
| 2026-05-03 21:00 | 52.18341 | -1.11664 | 22459 ft | 391 kts | 162° |
| 2026-05-03 21:01 | 52.15723 | -1.10487 | 22950 ft | 392 kts | 170° |
| 2026-05-03 21:01 | 52.13043 | -1.09651 | 23429 ft | 394 kts | 171° |
| 2026-05-03 21:01 | 52.10335 | -1.08834 | 23896 ft | 396 kts | 171° |
| 2026-05-03 21:01 | 52.07612 | -1.07993 | 24345 ft | 399 kts | 171° |
| 2026-05-03 21:02 | 52.04876 | -1.07120 | 24766 ft | 402 kts | 171° |
| 2026-05-03 21:02 | 52.02129 | -1.06228 | 25228 ft | 403 kts | 171° |
| 2026-05-03 21:02 | 51.99373 | -1.05333 | 25659 ft | 405 kts | 171° |
| 2026-05-03 21:02 | 51.96607 | -1.04433 | 26126 ft | 405 kts | 171° |
| 2026-05-03 21:03 | 51.93858 | -1.03525 | 26540 ft | 404 kts | 171° |
| 2026-05-03 21:03 | 51.91077 | -1.02593 | 26744 ft | 411 kts | 171° |
| 2026-05-03 21:03 | 51.88324 | -1.01673 | 27034 ft | 413 kts | 171° |
| 2026-05-03 21:03 | 51.85498 | -1.00998 | 27402 ft | 412 kts | 179° |
| 2026-05-03 21:04 | 51.82638 | -1.01006 | 27780 ft | 410 kts | 187° |
| 2026-05-03 21:04 | 51.79808 | -1.01677 | 28111 ft | 412 kts | 191° |
| 2026-05-03 21:04 | 51.77936 | -1.02196 | 28313 ft | 413 kts | 191° |
| 2026-05-03 21:04 | 51.75096 | -1.02978 | 28613 ft | 416 kts | 191° |
| 2026-05-03 21:05 | 51.72237 | -1.03747 | 28909 ft | 417 kts | 190° |
| 2026-05-03 21:05 | 51.69362 | -1.04501 | 29210 ft | 419 kts | 190° |
| 2026-05-03 21:05 | 51.65567 | -1.05480 | 29860 ft | 414 kts | 190° |
| 2026-05-03 21:05 | 51.62729 | -1.06203 | 30311 ft | 412 kts | 190° |
| 2026-05-03 21:06 | 51.60814 | -1.06771 | 30522 ft | 414 kts | 194° |
| 2026-05-03 21:06 | 51.58025 | -1.07896 | 30825 ft | 414 kts | 196° |
| 2026-05-03 21:06 | 51.55278 | -1.09130 | 31085 ft | 415 kts | 196° |
| 2026-05-03 21:06 | 51.52532 | -1.10356 | 31387 ft | 415 kts | 196° |
| 2026-05-03 21:07 | 51.49746 | -1.11563 | 31749 ft | 414 kts | 195° |
| 2026-05-03 21:07 | 51.46964 | -1.12748 | 32126 ft | 413 kts | 195° |
| 2026-05-03 21:07 | 51.44181 | -1.13941 | 32433 ft | 413 kts | 196° |
| 2026-05-03 21:07 | 51.41407 | -1.15140 | 32703 ft | 413 kts | 196° |
| 2026-05-03 21:08 | 51.38627 | -1.16340 | 33005 ft | 413 kts | 195° |
| 2026-05-03 21:08 | 51.35852 | -1.17533 | 33280 ft | 413 kts | 195° |
| 2026-05-03 21:08 | 51.33073 | -1.18719 | 33559 ft | 413 kts | 195° |
| 2026-05-03 21:08 | 51.30296 | -1.19901 | 33820 ft | 413 kts | 195° |
| 2026-05-03 21:09 | 51.27523 | -1.21079 | 34141 ft | 412 kts | 195° |
| 2026-05-03 21:09 | 51.24754 | -1.22256 | 34458 ft | 411 kts | 195° |
| 2026-05-03 21:09 | 51.21986 | -1.23430 | 34655 ft | 413 kts | 195° |
| 2026-05-03 21:09 | 51.19204 | -1.24609 | 34851 ft | 414 kts | 195° |
| 2026-05-03 21:10 | 51.16450 | -1.25766 | 35068 ft | 415 kts | 195° |
| 2026-05-03 21:10 | 51.13689 | -1.26920 | 35277 ft | 416 kts | 195° |
| 2026-05-03 21:10 | 51.10881 | -1.28093 | 35418 ft | 418 kts | 195° |
| 2026-05-03 21:10 | 51.08063 | -1.29268 | 35611 ft | 419 kts | 195° |
| 2026-05-03 21:11 | 51.05238 | -1.30447 | 35861 ft | 418 kts | 195° |
| 2026-05-03 21:11 | 51.02420 | -1.31622 | 36076 ft | 419 kts | 195° |
| 2026-05-03 21:11 | 50.99601 | -1.32795 | 36279 ft | 419 kts | 195° |
| 2026-05-03 21:11 | 50.96796 | -1.34079 | 36430 ft | 420 kts | 201° |
| 2026-05-03 21:12 | 50.94117 | -1.35933 | 36579 ft | 421 kts | 208° |
| 2026-05-03 21:12 | 50.91640 | -1.38385 | 36873 ft | 418 kts | 213° |
| 2026-05-03 21:12 | 50.86789 | -1.43528 | 36945 ft | 419 kts | 213° |
| 2026-05-03 21:13 | 50.82015 | -1.48545 | 36929 ft | 410 kts | 213° |
| 2026-05-03 21:13 | 50.77266 | -1.53486 | 36943 ft | 408 kts | 213° |
| 2026-05-03 21:14 | 50.72507 | -1.58415 | 36947 ft | 408 kts | 213° |
| 2026-05-03 21:14 | 50.67742 | -1.63338 | 36945 ft | 409 kts | 213° |
| 2026-05-03 21:15 | 50.62972 | -1.68253 | 36943 ft | 410 kts | 213° |
| 2026-05-03 21:15 | 50.58222 | -1.73139 | 36947 ft | 411 kts | 213° |
| 2026-05-03 21:16 | 50.53427 | -1.78057 | 36946 ft | 411 kts | 213° |
| 2026-05-03 21:16 | 50.48615 | -1.82958 | 36945 ft | 412 kts | 212° |
| 2026-05-03 21:17 | 50.44607 | -1.87019 | 36947 ft | 413 kts | 212° |
| 2026-05-03 21:17 | 50.38970 | -1.92721 | 36943 ft | 413 kts | 212° |
| 2026-05-03 21:18 | 50.34163 | -1.97577 | 36943 ft | 413 kts | 212° |
| 2026-05-03 21:18 | 50.29325 | -2.02451 | 36946 ft | 413 kts | 212° |
| 2026-05-03 21:19 | 50.24224 | -2.06475 | 36959 ft | 411 kts | 198° |
| 2026-05-03 21:19 | 50.18597 | -2.08114 | 36964 ft | 413 kts | 186° |
| 2026-05-03 21:20 | 50.12873 | -2.08797 | 36959 ft | 412 kts | 186° |
| 2026-05-03 21:20 | 50.07191 | -2.09509 | 36952 ft | 412 kts | 186° |
| 2026-05-03 21:21 | 50.01478 | -2.10264 | 36954 ft | 412 kts | 186° |
| 2026-05-03 21:21 | 49.95754 | -2.10829 | 36959 ft | 412 kts | 182° |
| 2026-05-03 21:22 | 49.90006 | -2.10726 | 36966 ft | 413 kts | 181° |
| 2026-05-03 21:22 | 49.84255 | -2.10598 | 36964 ft | 414 kts | 181° |
| 2026-05-03 21:23 | 49.78496 | -2.10544 | 36963 ft | 414 kts | 181° |
| 2026-05-03 21:23 | 49.72734 | -2.10355 | 36956 ft | 415 kts | 175° |
| 2026-05-03 21:24 | 49.67129 | -2.08309 | 36972 ft | 418 kts | 166° |
| 2026-05-03 21:24 | 49.61545 | -2.05776 | 36962 ft | 418 kts | 166° |
| 2026-05-03 21:25 | 49.55965 | -2.03287 | 36962 ft | 417 kts | 167° |
| 2026-05-03 21:25 | 49.50377 | -2.00831 | 36964 ft | 417 kts | 167° |
| 2026-05-03 21:26 | 49.44785 | -1.98391 | 36962 ft | 417 kts | 167° |
| 2026-05-03 21:26 | 49.39200 | -1.95960 | 36962 ft | 417 kts | 167° |
| 2026-05-03 21:27 | 49.33643 | -1.93546 | 36964 ft | 417 kts | 167° |
| 2026-05-03 21:27 | 49.28063 | -1.91125 | 36964 ft | 417 kts | 167° |
| 2026-05-03 21:28 | 49.22489 | -1.88715 | 36964 ft | 416 kts | 167° |
| 2026-05-03 21:28 | 49.16919 | -1.86312 | 36962 ft | 415 kts | 168° |
| 2026-05-03 21:29 | 49.11359 | -1.83918 | 36964 ft | 415 kts | 168° |
| 2026-05-03 21:29 | 49.05814 | -1.81536 | 36959 ft | 414 kts | 168° |
| 2026-05-03 21:30 | 49.00281 | -1.79166 | 36958 ft | 412 kts | 168° |
| 2026-05-03 21:30 | 48.94768 | -1.76809 | 36963 ft | 411 kts | 168° |
| 2026-05-03 21:31 | 48.89246 | -1.75082 | 36958 ft | 404 kts | 181° |
| 2026-05-03 21:31 | 48.83643 | -1.75042 | 36956 ft | 403 kts | 183° |
| 2026-05-03 21:32 | 48.78049 | -1.75020 | 36963 ft | 402 kts | 183° |
| 2026-05-03 21:32 | 48.72451 | -1.74972 | 36963 ft | 401 kts | 182° |
| 2026-05-03 21:33 | 48.66865 | -1.74907 | 36968 ft | 401 kts | 182° |
| 2026-05-03 21:33 | 48.61328 | -1.74838 | 36963 ft | 401 kts | 182° |
| 2026-05-03 21:34 | 48.55737 | -1.74772 | 36964 ft | 401 kts | 183° |
| 2026-05-03 21:34 | 48.50146 | -1.74709 | 36963 ft | 400 kts | 183° |
| 2026-05-03 21:35 | 48.44558 | -1.74648 | 36968 ft | 401 kts | 183° |
| 2026-05-03 21:35 | 48.39004 | -1.74582 | 36964 ft | 401 kts | 183° |
| 2026-05-03 21:36 | 48.33419 | -1.74512 | 36966 ft | 402 kts | 183° |
| 2026-05-03 21:36 | 48.27829 | -1.74449 | 36964 ft | 402 kts | 183° |
| 2026-05-03 21:37 | 48.22241 | -1.74380 | 36962 ft | 401 kts | 183° |
| 2026-05-03 21:37 | 48.16655 | -1.74312 | 36959 ft | 401 kts | 183° |
| 2026-05-03 21:38 | 48.11073 | -1.74247 | 36964 ft | 400 kts | 183° |
| 2026-05-03 21:38 | 48.05595 | -1.74941 | 36970 ft | 395 kts | 195° |
| 2026-05-03 21:39 | 48.00389 | -1.77460 | 36959 ft | 393 kts | 201° |
| 2026-05-03 21:39 | 47.95223 | -1.80162 | 36962 ft | 393 kts | 201° |
| 2026-05-03 21:40 | 47.90051 | -1.82840 | 36972 ft | 394 kts | 200° |
| 2026-05-03 21:40 | 47.84867 | -1.85492 | 36964 ft | 395 kts | 200° |
| 2026-05-03 21:41 | 47.79664 | -1.88140 | 36963 ft | 394 kts | 200° |
| 2026-05-03 21:41 | 47.74481 | -1.90782 | 36967 ft | 393 kts | 200° |
| 2026-05-03 21:42 | 47.69337 | -1.93394 | 36967 ft | 393 kts | 200° |
| 2026-05-03 21:42 | 47.64055 | -1.95457 | 36966 ft | 395 kts | 190° |
| 2026-05-03 21:43 | 47.58521 | -1.95486 | 36981 ft | 400 kts | 179° |
| 2026-05-03 21:43 | 47.52973 | -1.94833 | 36957 ft | 400 kts | 179° |
| 2026-05-03 21:44 | 47.47418 | -1.94216 | 36970 ft | 400 kts | 180° |
| 2026-05-03 21:44 | 47.41859 | -1.93628 | 36957 ft | 400 kts | 180° |
| 2026-05-03 21:45 | 47.36370 | -1.93657 | 36963 ft | 393 kts | 193° |
| 2026-05-03 21:45 | 47.31213 | -1.96121 | 36959 ft | 389 kts | 210° |
| 2026-05-03 21:46 | 47.26579 | -2.00236 | 36960 ft | 389 kts | 212° |
| 2026-05-03 21:46 | 47.21967 | -2.04424 | 36957 ft | 389 kts | 212° |
| 2026-05-03 21:47 | 47.17372 | -2.08556 | 36973 ft | 389 kts | 212° |
| 2026-05-03 21:47 | 47.12731 | -2.12689 | 36970 ft | 389 kts | 211° |
| 2026-05-03 21:48 | 47.08093 | -2.16804 | 36971 ft | 390 kts | 212° |
| 2026-05-03 21:48 | 47.03448 | -2.20913 | 36972 ft | 390 kts | 212° |
| 2026-05-03 21:49 | 46.98822 | -2.25006 | 36973 ft | 390 kts | 212° |
| 2026-05-03 21:49 | 46.94163 | -2.29116 | 36981 ft | 390 kts | 212° |
| 2026-05-03 21:50 | 46.89498 | -2.33225 | 36980 ft | 392 kts | 212° |
| 2026-05-03 21:50 | 46.84825 | -2.37337 | 36969 ft | 392 kts | 212° |
| 2026-05-03 21:51 | 46.80169 | -2.41418 | 36970 ft | 392 kts | 212° |
| 2026-05-03 21:51 | 46.75491 | -2.45514 | 36968 ft | 392 kts | 212° |
| 2026-05-03 21:52 | 46.70818 | -2.49604 | 36973 ft | 390 kts | 212° |
| 2026-05-03 21:52 | 46.66169 | -2.53669 | 36966 ft | 389 kts | 212° |
| 2026-05-03 21:53 | 46.61524 | -2.57717 | 36978 ft | 388 kts | 212° |
| 2026-05-03 21:53 | 46.56894 | -2.61741 | 36974 ft | 388 kts | 211° |
| 2026-05-03 21:54 | 46.52288 | -2.65743 | 36976 ft | 388 kts | 212° |
| 2026-05-03 21:54 | 46.47653 | -2.69759 | 36973 ft | 388 kts | 211° |
| 2026-05-03 21:55 | 46.43771 | -2.73117 | 36966 ft | 388 kts | 211° |
| 2026-05-03 21:55 | 46.39127 | -2.77117 | 36970 ft | 388 kts | 211° |
| 2026-05-03 21:56 | 46.34515 | -2.81103 | 36966 ft | 388 kts | 211° |
| 2026-05-03 21:56 | 46.29890 | -2.85070 | 36973 ft | 387 kts | 211° |
| 2026-05-03 21:57 | 46.24894 | -2.87952 | 36972 ft | 389 kts | 196° |
| 2026-05-03 21:57 | 46.19508 | -2.89050 | 36980 ft | 392 kts | 189° |
| 2026-05-03 21:58 | 46.14065 | -2.89795 | 36973 ft | 393 kts | 189° |
| 2026-05-03 21:58 | 46.08639 | -2.90564 | 36970 ft | 395 kts | 189° |
| 2026-05-03 21:59 | 46.03167 | -2.91353 | 36977 ft | 395 kts | 189° |
| 2026-05-03 21:59 | 45.97690 | -2.92154 | 36973 ft | 396 kts | 189° |
| 2026-05-03 22:00 | 45.92189 | -2.92960 | 36973 ft | 397 kts | 189° |
| 2026-05-03 22:00 | 45.86696 | -2.93764 | 36972 ft | 397 kts | 189° |
| 2026-05-03 22:01 | 45.81207 | -2.94563 | 36973 ft | 396 kts | 189° |
| 2026-05-03 22:01 | 45.75718 | -2.95362 | 36972 ft | 396 kts | 189° |
| 2026-05-03 22:02 | 45.70277 | -2.96151 | 36968 ft | 395 kts | 189° |
| 2026-05-03 22:02 | 45.64813 | -2.96941 | 36973 ft | 394 kts | 189° |
| 2026-05-03 22:03 | 45.59356 | -2.97732 | 36971 ft | 394 kts | 189° |
| 2026-05-03 22:03 | 45.53909 | -2.98520 | 36980 ft | 393 kts | 189° |
| 2026-05-03 22:04 | 45.48473 | -2.99305 | 36973 ft | 393 kts | 189° |
| 2026-05-03 22:04 | 45.43022 | -3.00089 | 36972 ft | 393 kts | 189° |
| 2026-05-03 22:05 | 45.37576 | -3.00871 | 36980 ft | 393 kts | 189° |
| 2026-05-03 22:05 | 45.32174 | -3.01646 | 36981 ft | 393 kts | 189° |
| 2026-05-03 22:06 | 45.26708 | -3.02303 | 36986 ft | 394 kts | 188° |
| 2026-05-03 22:06 | 45.21235 | -3.02863 | 36986 ft | 395 kts | 188° |
| 2026-05-03 22:07 | 45.15743 | -3.03428 | 36994 ft | 395 kts | 188° |
| 2026-05-03 22:07 | 45.10248 | -3.04005 | 36991 ft | 396 kts | 188° |
| 2026-05-03 22:08 | 45.04775 | -3.04586 | 36993 ft | 397 kts | 188° |
| 2026-05-03 22:08 | 44.99257 | -3.05172 | 36992 ft | 398 kts | 188° |
| 2026-05-03 22:09 | 44.93733 | -3.05757 | 36990 ft | 398 kts | 188° |
| 2026-05-03 22:10 | 44.85444 | -3.06634 | 36994 ft | 398 kts | 188° |
| 2026-05-03 22:10 | 44.79918 | -3.07213 | 36987 ft | 398 kts | 188° |
| 2026-05-03 22:11 | 44.74398 | -3.07795 | 36997 ft | 397 kts | 188° |
| 2026-05-03 22:11 | 44.68891 | -3.08374 | 36991 ft | 397 kts | 188° |
| 2026-05-03 22:12 | 44.63385 | -3.08952 | 36998 ft | 396 kts | 188° |
| 2026-05-03 22:12 | 44.57930 | -3.09523 | 36997 ft | 396 kts | 188° |
| 2026-05-03 22:13 | 44.52438 | -3.10097 | 37000 ft | 395 kts | 188° |
| 2026-05-03 22:13 | 44.46948 | -3.10670 | 37001 ft | 395 kts | 188° |
| 2026-05-03 22:14 | 44.41464 | -3.11239 | 37001 ft | 395 kts | 188° |
| 2026-05-03 22:14 | 44.35963 | -3.11811 | 36999 ft | 396 kts | 188° |
| 2026-05-03 22:15 | 44.30450 | -3.12384 | 36816 ft | 400 kts | 188° |
| 2026-05-03 22:15 | 44.27713 | -3.12668 | 36569 ft | 397 kts | 188° |
| 2026-05-03 22:15 | 44.24981 | -3.12949 | 36318 ft | 391 kts | 188° |
| 2026-05-03 22:15 | 44.22286 | -3.13226 | 36061 ft | 386 kts | 188° |
| 2026-05-03 22:16 | 44.19613 | -3.13504 | 35807 ft | 386 kts | 188° |
| 2026-05-03 22:16 | 44.16927 | -3.13782 | 35562 ft | 387 kts | 188° |
| 2026-05-03 22:16 | 44.14236 | -3.14061 | 35319 ft | 387 kts | 188° |
| 2026-05-03 22:16 | 44.11546 | -3.14337 | 35074 ft | 387 kts | 188° |
| 2026-05-03 22:17 | 44.08864 | -3.14613 | 34821 ft | 386 kts | 188° |
| 2026-05-03 22:17 | 44.06201 | -3.14824 | 34564 ft | 382 kts | 184° |
| 2026-05-03 22:17 | 44.03562 | -3.14592 | 34315 ft | 380 kts | 176° |
| 2026-05-03 22:17 | 44.01012 | -3.13887 | 34064 ft | 376 kts | 173° |
| 2026-05-03 22:18 | 43.98462 | -3.13120 | 33815 ft | 374 kts | 173° |
| 2026-05-03 22:18 | 43.95927 | -3.12363 | 33559 ft | 372 kts | 173° |
| 2026-05-03 22:18 | 43.93398 | -3.11616 | 33312 ft | 370 kts | 173° |
| 2026-05-03 22:18 | 43.90879 | -3.10881 | 33063 ft | 370 kts | 173° |
| 2026-05-03 22:19 | 43.88360 | -3.10150 | 32815 ft | 369 kts | 173° |
| 2026-05-03 22:19 | 43.85852 | -3.09425 | 32538 ft | 366 kts | 173° |
| 2026-05-03 22:19 | 43.83372 | -3.08707 | 32204 ft | 361 kts | 173° |
| 2026-05-03 22:19 | 43.80921 | -3.07999 | 31831 ft | 358 kts | 173° |
| 2026-05-03 22:20 | 43.78492 | -3.07300 | 31467 ft | 355 kts | 173° |
| 2026-05-03 22:20 | 43.76077 | -3.06603 | 31105 ft | 352 kts | 173° |
| 2026-05-03 22:20 | 43.73713 | -3.05924 | 30750 ft | 350 kts | 173° |
| 2026-05-03 22:20 | 43.71334 | -3.05241 | 30385 ft | 347 kts | 173° |
| 2026-05-03 22:21 | 43.68978 | -3.04565 | 30026 ft | 344 kts | 173° |
| 2026-05-03 22:21 | 43.66641 | -3.03872 | 29666 ft | 342 kts | 173° |
| 2026-05-03 22:21 | 43.64333 | -3.03148 | 29304 ft | 339 kts | 172° |
| 2026-05-03 22:21 | 43.62043 | -3.02419 | 28936 ft | 337 kts | 172° |
| 2026-05-03 22:22 | 43.59770 | -3.01696 | 28566 ft | 334 kts | 172° |
| 2026-05-03 22:22 | 43.57509 | -3.00981 | 28202 ft | 332 kts | 172° |
| 2026-05-03 22:22 | 43.55262 | -3.00273 | 27837 ft | 330 kts | 172° |
| 2026-05-03 22:22 | 43.53030 | -2.99571 | 27476 ft | 328 kts | 172° |
| 2026-05-03 22:23 | 43.50839 | -2.98883 | 27121 ft | 326 kts | 172° |
| 2026-05-03 22:23 | 43.48633 | -2.98191 | 26762 ft | 324 kts | 172° |
| 2026-05-03 22:23 | 43.46439 | -2.97504 | 26397 ft | 321 kts | 171° |
| 2026-05-03 22:23 | 43.44278 | -2.96828 | 26052 ft | 320 kts | 171° |
| 2026-05-03 22:24 | 43.42152 | -2.96165 | 25712 ft | 318 kts | 171° |
| 2026-05-03 22:24 | 43.40003 | -2.95494 | 25349 ft | 316 kts | 171° |
| 2026-05-03 22:24 | 43.37885 | -2.94833 | 25025 ft | 316 kts | 171° |
| 2026-05-03 22:24 | 43.35741 | -2.94165 | 24682 ft | 316 kts | 171° |
| 2026-05-03 22:25 | 43.33573 | -2.93490 | 24344 ft | 324 kts | 170° |
| 2026-05-03 22:25 | 43.31420 | -2.92397 | 23967 ft | 338 kts | 153° |
| 2026-05-03 22:25 | 43.29540 | -2.90415 | 23630 ft | 344 kts | 139° |
| 2026-05-03 22:25 | 43.28100 | -2.87781 | 23290 ft | 346 kts | 128° |
| 2026-05-03 22:26 | 43.26818 | -2.84993 | 22933 ft | 345 kts | 127° |
| 2026-05-03 22:26 | 43.25566 | -2.82199 | 22572 ft | 342 kts | 127° |
| 2026-05-03 22:26 | 43.24322 | -2.79427 | 22232 ft | 340 kts | 127° |
| 2026-05-03 22:26 | 43.23081 | -2.76683 | 21879 ft | 339 kts | 127° |
| 2026-05-03 22:27 | 43.21837 | -2.73954 | 21527 ft | 337 kts | 127° |
| 2026-05-03 22:27 | 43.20588 | -2.71232 | 21169 ft | 335 kts | 127° |
| 2026-05-03 22:27 | 43.19346 | -2.68537 | 20821 ft | 334 kts | 127° |
| 2026-05-03 22:27 | 43.18102 | -2.65845 | 20470 ft | 332 kts | 128° |
| 2026-05-03 22:28 | 43.16883 | -2.63212 | 20110 ft | 331 kts | 127° |
| 2026-05-03 22:28 | 43.15651 | -2.60554 | 19775 ft | 329 kts | 127° |
| 2026-05-03 22:28 | 43.14425 | -2.57911 | 19430 ft | 328 kts | 128° |
| 2026-05-03 22:28 | 43.13205 | -2.55286 | 19094 ft | 326 kts | 128° |
| 2026-05-03 22:29 | 43.11990 | -2.52674 | 18746 ft | 325 kts | 128° |
| 2026-05-03 22:29 | 43.10776 | -2.50068 | 18408 ft | 323 kts | 128° |
| 2026-05-03 22:29 | 43.09568 | -2.47473 | 18039 ft | 323 kts | 128° |
| 2026-05-03 22:29 | 43.08357 | -2.44875 | 17693 ft | 323 kts | 128° |
| 2026-05-03 22:30 | 43.07151 | -2.42290 | 17353 ft | 322 kts | 127° |
| 2026-05-03 22:30 | 43.05946 | -2.39710 | 17007 ft | 321 kts | 127° |
| 2026-05-03 22:30 | 43.04748 | -2.37145 | 16684 ft | 319 kts | 127° |
| 2026-05-03 22:30 | 43.03552 | -2.34589 | 16351 ft | 319 kts | 127° |
| 2026-05-03 22:31 | 43.02372 | -2.32069 | 16017 ft | 318 kts | 127° |
| 2026-05-03 22:31 | 43.01090 | -2.29632 | 15665 ft | 312 kts | 140° |
| 2026-05-03 22:31 | 42.99306 | -2.28102 | 15357 ft | 298 kts | 166° |
| 2026-05-03 22:31 | 42.97301 | -2.27704 | 15048 ft | 289 kts | 187° |
| 2026-05-03 22:32 | 42.95364 | -2.28277 | 14730 ft | 284 kts | 203° |
| 2026-05-03 22:32 | 42.93683 | -2.29633 | 14382 ft | 281 kts | 220° |
| 2026-05-03 22:32 | 42.92243 | -2.31416 | 14066 ft | 278 kts | 223° |
| 2026-05-03 22:32 | 42.90847 | -2.33236 | 13758 ft | 277 kts | 224° |
| 2026-05-03 22:33 | 42.89449 | -2.35065 | 13429 ft | 277 kts | 223° |
| 2026-05-03 22:33 | 42.88075 | -2.36851 | 13114 ft | 276 kts | 223° |
| 2026-05-03 22:33 | 42.86683 | -2.38649 | 12795 ft | 274 kts | 223° |
| 2026-05-03 22:33 | 42.85292 | -2.40436 | 12484 ft | 273 kts | 223° |
| 2026-05-03 22:34 | 42.83908 | -2.42208 | 12173 ft | 272 kts | 223° |
| 2026-05-03 22:34 | 42.82533 | -2.43967 | 11854 ft | 271 kts | 223° |
| 2026-05-03 22:34 | 42.81155 | -2.45712 | 11548 ft | 270 kts | 222° |
| 2026-05-03 22:34 | 42.79751 | -2.47395 | 11236 ft | 268 kts | 221° |
| 2026-05-03 22:35 | 42.78345 | -2.49057 | 10914 ft | 267 kts | 221° |
| 2026-05-03 22:35 | 42.76947 | -2.50706 | 10614 ft | 266 kts | 221° |
| 2026-05-03 22:35 | 42.75554 | -2.52356 | 10296 ft | 265 kts | 221° |
| 2026-05-03 22:35 | 42.74179 | -2.53986 | 10143 ft | 259 kts | 221° |
| 2026-05-03 22:36 | 42.72843 | -2.55553 | 9997 ft | 254 kts | 220° |
| 2026-05-03 22:36 | 42.71513 | -2.57125 | 9738 ft | 254 kts | 221° |
| 2026-05-03 22:36 | 42.70187 | -2.58707 | 9466 ft | 254 kts | 221° |
| 2026-05-03 22:36 | 42.69063 | -2.60526 | 9162 ft | 253 kts | 243° |
| 2026-05-03 22:37 | 42.68577 | -2.62816 | 8910 ft | 254 kts | 263° |
| 2026-05-03 22:37 | 42.68701 | -2.65214 | 8638 ft | 256 kts | 280° |
| 2026-05-03 22:37 | 42.69159 | -2.67557 | 8362 ft | 255 kts | 284° |
| 2026-05-03 22:37 | 42.69665 | -2.69867 | 8082 ft | 255 kts | 282° |
| 2026-05-03 22:38 | 42.69818 | -2.72227 | 7801 ft | 249 kts | 260° |
| 2026-05-03 22:38 | 42.69411 | -2.74499 | 7577 ft | 246 kts | 252° |
| 2026-05-03 22:38 | 42.68903 | -2.76707 | 7361 ft | 246 kts | 250° |
| 2026-05-03 22:38 | 42.68165 | -2.78801 | 7124 ft | 245 kts | 231° |
| 2026-05-03 22:39 | 42.66956 | -2.80366 | 6903 ft | 237 kts | 215° |
| 2026-05-03 22:39 | 42.65696 | -2.81775 | 6725 ft | 233 kts | 221° |
| 2026-05-03 22:39 | 42.64548 | -2.83265 | 6487 ft | 228 kts | 223° |
| 2026-05-03 22:39 | 42.63380 | -2.84655 | 6298 ft | 217 kts | 221° |
| 2026-05-03 22:40 | 42.62548 | -2.86326 | 6064 ft | 218 kts | 250° |
| 2026-05-03 22:40 | 42.62394 | -2.88341 | 5839 ft | 214 kts | 277° |
| 2026-05-03 22:40 | 42.62927 | -2.90187 | 5616 ft | 212 kts | 306° |
| 2026-05-03 22:40 | 42.64028 | -2.91476 | 5405 ft | 210 kts | 334° |
| 2026-05-03 22:41 | 42.65443 | -2.91908 | 5251 ft | 210 kts | 2° |
| 2026-05-03 22:41 | 42.66877 | -2.91613 | 5111 ft | 206 kts | 11° |
| 2026-05-03 22:41 | 42.68279 | -2.91261 | 4952 ft | 203 kts | 11° |
| 2026-05-03 22:41 | 42.69640 | -2.90793 | 4762 ft | 201 kts | 27° |
| 2026-05-03 22:42 | 42.70760 | -2.89733 | 4598 ft | 197 kts | 38° |
| 2026-05-03 22:42 | 42.71865 | -2.88663 | 4453 ft | 194 kts | 36° |
| 2026-05-03 22:42 | 42.72966 | -2.87603 | 4332 ft | 194 kts | 37° |
| 2026-05-03 22:42 | 42.74051 | -2.86540 | 4209 ft | 188 kts | 37° |
| 2026-05-03 22:43 | 42.75078 | -2.85523 | 4178 ft | 179 kts | 37° |
| 2026-05-03 22:43 | 42.76083 | -2.84529 | 4173 ft | 178 kts | 37° |
| 2026-05-03 22:43 | 42.77091 | -2.83528 | 4044 ft | 183 kts | 37° |
| 2026-05-03 22:43 | 42.78116 | -2.82508 | 3805 ft | 182 kts | 37° |
| 2026-05-03 22:44 | 42.79128 | -2.81506 | 3559 ft | 176 kts | 38° |
| 2026-05-03 22:44 | 42.79771 | -2.80868 | 3406 ft | 170 kts | 36° |
| 2026-05-03 22:44 | 42.80715 | -2.79937 | 3210 ft | 165 kts | 35° |
| 2026-05-03 22:44 | 42.81609 | -2.79053 | 2981 ft | 155 kts | 35° |
| 2026-05-03 22:45 | 42.82464 | -2.78204 | 2784 ft | 151 kts | 36° |
| 2026-05-03 22:45 | 42.83590 | -2.77075 | 2538 ft | 153 kts | 36° |
| 2026-05-03 22:45 | 42.84166 | -2.76499 | 2392 ft | 155 kts | 36° |
| 2026-05-03 22:45 | 42.85042 | -2.75629 | 2199 ft | 156 kts | 36° |
| 2026-05-03 22:46 | 42.85921 | -2.74766 | 1982 ft | 155 kts | 35° |
| 2026-05-03 22:46 | 42.86779 | -2.73926 | 1784 ft | 151 kts | 36° |
| 2026-05-03 22:46 | 42.87599 | -2.73120 | 1679 ft | 139 kts | 35° |
| 2026-05-03 22:46 | 42.88275 | -2.72456 | 1676 ft | 102 kts | 36° |
| 2026-05-03 22:47 | 42.88729 | -2.72010 | 1674 ft | 59 kts | 36° |
| 2026-05-03 22:47 | 42.88991 | -2.71752 | 1678 ft | 42 kts | 36° |
| 2026-05-03 22:47 | 42.89219 | -2.71529 | 1675 ft | 38 kts | 36° |
| 2026-05-03 22:47 | 42.89381 | -2.71369 | 1674 ft | 23 kts | 36° |
| 2026-05-03 22:48 | 42.89489 | -2.71264 | 1684 ft | 15 kts | 30° |
| 2026-05-03 22:48 | 42.89585 | -2.71276 | 1676 ft | 14 kts | 320° |
| 2026-05-03 22:48 | 42.89635 | -2.71367 | 1685 ft | 10 kts | 297° |
| 2026-05-03 22:48 | 42.89609 | -2.71446 | 1685 ft | 10 kts | 216° |
| 2026-05-03 22:49 | 42.89554 | -2.71501 | 1676 ft | 10 kts | 216° |
| 2026-05-03 22:49 | 42.89500 | -2.71554 | 1676 ft | 9 kts | 216° |
| 2026-05-03 22:49 | 42.89447 | -2.71606 | 1680 ft | 9 kts | 216° |
| 2026-05-03 22:49 | 42.89395 | -2.71657 | 1676 ft | 10 kts | 216° |
| 2026-05-03 22:50 | 42.89336 | -2.71715 | 1679 ft | 11 kts | 216° |
| 2026-05-03 22:50 | 42.89269 | -2.71781 | 1676 ft | 13 kts | 216° |
| 2026-05-03 22:50 | 42.89194 | -2.71854 | 1680 ft | 14 kts | 216° |
| 2026-05-03 22:50 | 42.89112 | -2.71935 | 1682 ft | 15 kts | 216° |
| 2026-05-03 22:51 | 42.89026 | -2.72019 | 1683 ft | 16 kts | 215° |
| 2026-05-03 22:51 | 42.88940 | -2.72104 | 1676 ft | 15 kts | 216° |
| 2026-05-03 22:51 | 42.88851 | -2.72192 | 1676 ft | 16 kts | 216° |
| 2026-05-03 22:51 | 42.88755 | -2.72286 | 1676 ft | 17 kts | 216° |
| 2026-05-03 22:52 | 42.88655 | -2.72385 | 1682 ft | 18 kts | 216° |
| 2026-05-03 22:52 | 42.88551 | -2.72486 | 1680 ft | 18 kts | 216° |
| 2026-05-03 22:52 | 42.88451 | -2.72585 | 1679 ft | 18 kts | 216° |
| 2026-05-03 22:52 | 42.88354 | -2.72681 | 1684 ft | 17 kts | 216° |
| 2026-05-03 22:53 | 42.88260 | -2.72773 | 1680 ft | 16 kts | 216° |
| 2026-05-03 22:53 | 42.88170 | -2.72861 | 1680 ft | 16 kts | 216° |
| 2026-05-03 22:53 | 42.88083 | -2.72946 | 1676 ft | 15 kts | 216° |
| 2026-05-03 22:53 | 42.88001 | -2.73027 | 1680 ft | 14 kts | 216° |
| 2026-05-03 22:54 | 42.87922 | -2.73105 | 1681 ft | 14 kts | 216° |
| 2026-05-03 22:54 | 42.87846 | -2.73180 | 1686 ft | 13 kts | 216° |
| 2026-05-03 22:54 | 42.87779 | -2.73246 | 1677 ft | 10 kts | 216° |
| 2026-05-03 22:54 | 42.87763 | -2.73324 | 1676 ft | 9 kts | 291° |
| 2026-05-03 22:55 | 42.87798 | -2.73396 | 1676 ft | 9 kts | 306° |
| 2026-05-03 22:55 | 42.87827 | -2.73469 | 1681 ft | 9 kts | 296° |
| 2026-05-03 22:55 | 42.87860 | -2.73537 | 1676 ft | 8 kts | 304° |
| 2026-05-03 22:55 | 42.87893 | -2.73601 | 1681 ft | 8 kts | 306° |
| 2026-05-03 22:56 | 42.87907 | -2.73654 | 1685 ft | 4 kts | 257° |
| 2026-05-03 22:56 | 42.87891 | -2.73680 | 1684 ft | 3 kts | 240° |
| 2026-05-03 22:56 | 42.87896 | -2.73705 | 1676 ft | 0 kts | 303° |